Station Historical Data
Daily Summary for April 21, 2017 Units:  Both    English   Metric
« Previous Day
Next Day »
Daily Weekly Monthly Yearly Custom
  High: Low: Average:
Temperature: 52.5 °F /  11.4 °C 44.2 °F /  6.8 °C 48 °F /  8.9 °C
Dew Point: 51.1 °F /  10.6 °C 37.8 °F /  3.2 °C 44.6 °F /  7 °C
Humidity: 96% 73% 88%
Wind Speed: 15.0mph /  24.1km/h - 4.8mph /  7.7km/h
Wind Gust: 24.0mph /  38.6km/h - -
Wind- - WSW
Pressure: 30.02 in /  1016.5 hPa 29.76 in /  1007.7 hPa -
Precipitation: 0.00 in /  0 mm    
Historical Graphs
 
 
Tabular Data for April 21, 2017
Time Temperature Dew Point Pressure Wind Wind Speed Wind Gust Humidity Rainfall Rate (Hourly)
00:04 50.9 °F /  10.5 °C 49.5 °F /  9.7 °C 29.79in /  1008.7hPa NNW 2.0mph /  3.2km/h 2.0mph /  3.2km/h 95% 0.01in /  0.25mm
00:09 51.0 °F /  10.6 °C 49.3 °F /  9.6 °C 29.80in /  1009hPa NNW 1.0mph /  1.6km/h 4.0mph /  6.4km/h 94% 0.01in /  0.25mm
00:14 50.9 °F /  10.5 °C 49.2 °F /  9.6 °C 29.79in /  1008.7hPa NNW 2.0mph /  3.2km/h 4.0mph /  6.4km/h 94% 0.01in /  0.25mm
00:19 50.7 °F /  10.4 °C 49.0 °F /  9.4 °C 29.79in /  1008.7hPa NNW 1.0mph /  1.6km/h 3.0mph /  4.8km/h 94% 0.01in /  0.25mm
00:24 50.5 °F /  10.3 °C 48.8 °F /  9.3 °C 29.78in /  1008.4hPa Calm     94% 0.01in /  0.25mm
00:29 50.1 °F /  10.1 °C 48.4 °F /  9.1 °C 29.78in /  1008.4hPa NNW 1.0mph /  1.6km/h 2.0mph /  3.2km/h 94% 0.01in /  0.25mm
00:34 50.0 °F /  10 °C 48.3 °F /  9.1 °C 29.78in /  1008.4hPa Calm   3.0mph /  4.8km/h 94% 0.01in /  0.25mm
00:39 50.0 °F /  10 °C 48.3 °F /  9.1 °C 29.78in /  1008.4hPa Calm     94% 0.01in /  0.25mm
00:44 50.0 °F /  10 °C 48.3 °F /  9.1 °C 29.78in /  1008.4hPa Calm     94% 0.01in /  0.25mm
00:49 50.1 °F /  10.1 °C 48.4 °F /  9.1 °C 29.78in /  1008.4hPa Calm   2.0mph /  3.2km/h 94% 0.01in /  0.25mm
00:54 50.1 °F /  10.1 °C 48.4 °F /  9.1 °C 29.78in /  1008.4hPa Calm   2.0mph /  3.2km/h 94% 0.01in /  0.25mm
00:59 50.0 °F /  10 °C 48.3 °F /  9.1 °C 29.77in /  1008hPa SSW 1.0mph /  1.6km/h 3.0mph /  4.8km/h 94% 0.00in /  0mm
01:04 50.1 °F /  10.1 °C 48.4 °F /  9.1 °C 29.77in /  1008hPa South 1.0mph /  1.6km/h 3.0mph /  4.8km/h 94% 0.00in /  0mm
01:09 50.2 °F /  10.1 °C 48.5 °F /  9.2 °C 29.77in /  1008hPa SSE 1.0mph /  1.6km/h 2.0mph /  3.2km/h 94% 0.00in /  0mm
01:14 50.3 °F /  10.2 °C 48.9 °F /  9.4 °C 29.77in /  1008hPa Calm   2.0mph /  3.2km/h 95% 0.00in /  0mm
01:19 50.3 °F /  10.2 °C 48.6 °F /  9.2 °C 29.77in /  1008hPa Calm     94% 0.00in /  0mm
01:24 50.2 °F /  10.1 °C 48.5 °F /  9.2 °C 29.77in /  1008hPa Calm     94% 0.00in /  0mm
01:29 50.0 °F /  10 °C 48.3 °F /  9.1 °C 29.77in /  1008hPa Calm     94% 0.00in /  0mm
01:34 50.0 °F /  10 °C 48.3 °F /  9.1 °C 29.76in /  1007.7hPa Calm     94% 0.00in /  0mm
01:39 50.2 °F /  10.1 °C 48.8 °F /  9.3 °C 29.77in /  1008hPa Calm     95% 0.00in /  0mm
01:44 50.4 °F /  10.2 °C 49.0 °F /  9.4 °C 29.77in /  1008hPa Calm     95% 0.00in /  0mm
01:49 50.5 °F /  10.3 °C 49.1 °F /  9.5 °C 29.76in /  1007.7hPa Calm     95% 0.00in /  0mm
01:54 50.7 °F /  10.4 °C 49.3 °F /  9.6 °C 29.76in /  1007.7hPa Calm     95% 0.00in /  0mm
01:59 50.9 °F /  10.5 °C 49.5 °F /  9.7 °C 29.76in /  1007.7hPa Calm     95% 0.00in /  0mm
02:04 50.9 °F /  10.5 °C 49.5 °F /  9.7 °C 29.76in /  1007.7hPa Calm     95% 0.00in /  0mm
02:09 50.9 °F /  10.5 °C 49.5 °F /  9.7 °C 29.76in /  1007.7hPa Calm     95% 0.00in /  0mm
02:14 50.9 °F /  10.5 °C 49.5 °F /  9.7 °C 29.76in /  1007.7hPa Calm     95% 0.00in /  0mm
02:19 51.1 °F /  10.6 °C 49.7 °F /  9.8 °C 29.76in /  1007.7hPa Calm     95% 0.00in /  0mm
02:24 51.5 °F /  10.8 °C 50.1 °F /  10.1 °C 29.76in /  1007.7hPa Calm   3.0mph /  4.8km/h 95% 0.00in /  0mm
02:29 52.0 °F /  11.1 °C 50.6 °F /  10.3 °C 29.77in /  1008hPa SW 1.0mph /  1.6km/h 3.0mph /  4.8km/h 95% 0.00in /  0mm
02:34 52.1 °F /  11.2 °C 50.7 °F /  10.4 °C 29.76in /  1007.7hPa WSW 2.0mph /  3.2km/h 4.0mph /  6.4km/h 95% 0.00in /  0mm
02:39 52.2 °F /  11.2 °C 50.8 °F /  10.4 °C 29.76in /  1007.7hPa SW 4.0mph /  6.4km/h 5.0mph /  8km/h 95% 0.00in /  0mm
02:44 52.3 °F /  11.3 °C 50.9 °F /  10.5 °C 29.77in /  1008hPa West 3.0mph /  4.8km/h 4.0mph /  6.4km/h 95% 0.00in /  0mm
02:49 52.4 °F /  11.3 °C 51.0 °F /  10.6 °C 29.77in /  1008hPa West 2.0mph /  3.2km/h 5.0mph /  8km/h 95% 0.00in /  0mm
02:54 52.4 °F /  11.3 °C 51.0 °F /  10.6 °C 29.77in /  1008hPa West 3.0mph /  4.8km/h 5.0mph /  8km/h 95% 0.00in /  0mm
02:59 52.3 °F /  11.3 °C 50.9 °F /  10.5 °C 29.77in /  1008hPa WSW 2.0mph /  3.2km/h 3.0mph /  4.8km/h 95% 0.00in /  0mm
03:04 52.4 °F /  11.3 °C 51.0 °F /  10.6 °C 29.77in /  1008hPa West 1.0mph /  1.6km/h 4.0mph /  6.4km/h 95% 0.00in /  0mm
03:09 52.5 °F /  11.4 °C 51.1 °F /  10.6 °C 29.76in /  1007.7hPa WNW 3.0mph /  4.8km/h 6.0mph /  9.7km/h 95% 0.00in /  0mm
03:14 52.4 °F /  11.3 °C 51.0 °F /  10.6 °C 29.77in /  1008hPa West 2.0mph /  3.2km/h 6.0mph /  9.7km/h 95% 0.00in /  0mm
03:19 52.3 °F /  11.3 °C 50.9 °F /  10.5 °C 29.76in /  1007.7hPa WNW 3.0mph /  4.8km/h 7.0mph /  11.3km/h 95% 0.00in /  0mm
03:24 52.2 °F /  11.2 °C 50.8 °F /  10.4 °C 29.76in /  1007.7hPa West 3.0mph /  4.8km/h 7.0mph /  11.3km/h 95% 0.00in /  0mm
03:29 52.2 °F /  11.2 °C 50.8 °F /  10.4 °C 29.76in /  1007.7hPa West 3.0mph /  4.8km/h 5.0mph /  8km/h 95% 0.00in /  0mm
03:34 52.2 °F /  11.2 °C 50.8 °F /  10.4 °C 29.76in /  1007.7hPa West 2.0mph /  3.2km/h 5.0mph /  8km/h 95% 0.00in /  0mm
03:39 52.1 °F /  11.2 °C 50.7 °F /  10.4 °C 29.76in /  1007.7hPa West 2.0mph /  3.2km/h 5.0mph /  8km/h 95% 0.00in /  0mm
03:44 52.1 °F /  11.2 °C 50.7 °F /  10.4 °C 29.76in /  1007.7hPa West 2.0mph /  3.2km/h 5.0mph /  8km/h 95% 0.00in /  0mm
03:49 52.1 °F /  11.2 °C 50.7 °F /  10.4 °C 29.76in /  1007.7hPa West 2.0mph /  3.2km/h 5.0mph /  8km/h 95% 0.00in /  0mm
03:54 52.1 °F /  11.2 °C 50.7 °F /  10.4 °C 29.77in /  1008hPa West 2.0mph /  3.2km/h 3.0mph /  4.8km/h 95% 0.00in /  0mm
03:59 52.2 °F /  11.2 °C 50.8 °F /  10.4 °C 29.76in /  1007.7hPa WSW 1.0mph /  1.6km/h 4.0mph /  6.4km/h 95% 0.00in /  0mm
04:04 52.2 °F /  11.2 °C 50.8 °F /  10.4 °C 29.76in /  1007.7hPa WSW 2.0mph /  3.2km/h 3.0mph /  4.8km/h 95% 0.00in /  0mm
04:09 52.1 °F /  11.2 °C 50.7 °F /  10.4 °C 29.77in /  1008hPa Calm   4.0mph /  6.4km/h 95% 0.00in /  0mm
04:14 52.1 °F /  11.2 °C 50.7 °F /  10.4 °C 29.77in /  1008hPa SW 1.0mph /  1.6km/h 4.0mph /  6.4km/h 95% 0.00in /  0mm
04:19 52.1 °F /  11.2 °C 50.7 °F /  10.4 °C 29.77in /  1008hPa West 4.0mph /  6.4km/h 4.0mph /  6.4km/h 95% 0.00in /  0mm
04:24 52.1 °F /  11.2 °C 50.7 °F /  10.4 °C 29.78in /  1008.4hPa SW 2.0mph /  3.2km/h 4.0mph /  6.4km/h 95% 0.00in /  0mm
04:29 52.1 °F /  11.2 °C 50.7 °F /  10.4 °C 29.78in /  1008.4hPa WSW 2.0mph /  3.2km/h 4.0mph /  6.4km/h 95% 0.00in /  0mm
04:34 52.2 °F /  11.2 °C 50.8 °F /  10.4 °C 29.77in /  1008hPa SW 2.0mph /  3.2km/h 4.0mph /  6.4km/h 95% 0.00in /  0mm
04:39 52.2 °F /  11.2 °C 50.8 °F /  10.4 °C 29.77in /  1008hPa SW 2.0mph /  3.2km/h 5.0mph /  8km/h 95% 0.00in /  0mm
04:44 52.0 °F /  11.1 °C 50.6 °F /  10.3 °C 29.78in /  1008.4hPa SSW 5.0mph /  8km/h 6.0mph /  9.7km/h 95% 0.00in /  0mm
04:49 51.5 °F /  10.8 °C 49.8 °F /  9.9 °C 29.78in /  1008.4hPa SW 3.0mph /  4.8km/h 7.0mph /  11.3km/h 94% 0.00in /  0mm
04:54 51.0 °F /  10.6 °C 49.3 °F /  9.6 °C 29.79in /  1008.7hPa SW 4.0mph /  6.4km/h 9.0mph /  14.5km/h 94% 0.00in /  0mm
04:59 50.3 °F /  10.2 °C 48.6 °F /  9.2 °C 29.79in /  1008.7hPa SW 4.0mph /  6.4km/h 9.0mph /  14.5km/h 94% 0.00in /  0mm
05:04 49.9 °F /  9.9 °C 48.2 °F /  9 °C 29.78in /  1008.4hPa WSW 3.0mph /  4.8km/h 8.0mph /  12.9km/h 94% 0.00in /  0mm
05:09 49.5 °F /  9.7 °C 47.8 °F /  8.8 °C 29.78in /  1008.4hPa Calm   4.0mph /  6.4km/h 94% 0.00in /  0mm
05:14 49.3 °F /  9.6 °C 47.6 °F /  8.7 °C 29.78in /  1008.4hPa West 2.0mph /  3.2km/h 5.0mph /  8km/h 94% 0.00in /  0mm
05:19 49.3 °F /  9.6 °C 47.9 °F /  8.8 °C 29.78in /  1008.4hPa WSW 3.0mph /  4.8km/h 4.0mph /  6.4km/h 95% 0.00in /  0mm
05:24 49.4 °F /  9.7 °C 48.0 °F /  8.9 °C 29.78in /  1008.4hPa WSW 2.0mph /  3.2km/h 5.0mph /  8km/h 95% 0.00in /  0mm
05:29 49.6 °F /  9.8 °C 48.2 °F /  9 °C 29.79in /  1008.7hPa WSW 3.0mph /  4.8km/h 5.0mph /  8km/h 95% 0.00in /  0mm
05:34 49.8 °F /  9.9 °C 48.4 °F /  9.1 °C 29.79in /  1008.7hPa SW 4.0mph /  6.4km/h 6.0mph /  9.7km/h 95% 0.00in /  0mm
05:39 49.8 °F /  9.9 °C 48.4 °F /  9.1 °C 29.80in /  1009hPa SW 7.0mph /  11.3km/h 8.0mph /  12.9km/h 95% 0.00in /  0mm
05:44 49.6 °F /  9.8 °C 48.2 °F /  9 °C 29.80in /  1009hPa SW 2.0mph /  3.2km/h 8.0mph /  12.9km/h 95% 0.00in /  0mm
05:49 49.3 °F /  9.6 °C 47.6 °F /  8.7 °C 29.79in /  1008.7hPa WSW 1.0mph /  1.6km/h 5.0mph /  8km/h 94% 0.00in /  0mm
05:54 49.0 °F /  9.4 °C 47.3 °F /  8.5 °C 29.79in /  1008.7hPa SW 2.0mph /  3.2km/h 5.0mph /  8km/h 94% 0.00in /  0mm
05:59 48.8 °F /  9.3 °C 47.2 °F /  8.4 °C 29.80in /  1009hPa SW 2.0mph /  3.2km/h 6.0mph /  9.7km/h 94% 0.00in /  0mm
06:04 48.5 °F /  9.2 °C 47.1 °F /  8.4 °C 29.81in /  1009.4hPa SW 3.0mph /  4.8km/h 6.0mph /  9.7km/h 95% 0.00in /  0mm
06:09 48.1 °F /  8.9 °C 46.5 °F /  8.1 °C 29.81in /  1009.4hPa SW 4.0mph /  6.4km/h 7.0mph /  11.3km/h 94% 0.00in /  0mm
06:14 47.8 °F /  8.8 °C 46.2 °F /  7.9 °C 29.81in /  1009.4hPa SW 4.0mph /  6.4km/h 7.0mph /  11.3km/h 94% 0.00in /  0mm
06:19 47.7 °F /  8.7 °C 46.3 °F /  7.9 °C 29.81in /  1009.4hPa SW 4.0mph /  6.4km/h 8.0mph /  12.9km/h 95% 0.00in /  0mm
06:24 47.4 °F /  8.6 °C 45.8 °F /  7.7 °C 29.81in /  1009.4hPa SSW 5.0mph /  8km/h 9.0mph /  14.5km/h 94% 0.00in /  0mm
06:29 47.0 °F /  8.3 °C 45.4 °F /  7.4 °C 29.81in /  1009.4hPa WSW 5.0mph /  8km/h 9.0mph /  14.5km/h 94% 0.00in /  0mm
06:34 47.1 °F /  8.4 °C 45.5 °F /  7.5 °C 29.83in /  1010hPa West 3.0mph /  4.8km/h 9.0mph /  14.5km/h 94% 0.00in /  0mm
06:39 47.0 °F /  8.3 °C 45.6 °F /  7.6 °C 29.82in /  1009.7hPa SW 4.0mph /  6.4km/h 9.0mph /  14.5km/h 95% 0.00in /  0mm
06:44 47.0 °F /  8.3 °C 45.6 °F /  7.6 °C 29.82in /  1009.7hPa WSW 3.0mph /  4.8km/h 11.0mph /  17.7km/h 95% 0.00in /  0mm
06:49 47.0 °F /  8.3 °C 45.6 °F /  7.6 °C 29.83in /  1010hPa WSW 5.0mph /  8km/h 12.0mph /  19.3km/h 95% 0.00in /  0mm
06:54 47.0 °F /  8.3 °C 45.6 °F /  7.6 °C 29.83in /  1010hPa WSW 5.0mph /  8km/h 12.0mph /  19.3km/h 95% 0.00in /  0mm
06:59 47.0 °F /  8.3 °C 45.6 °F /  7.6 °C 29.83in /  1010hPa WSW 5.0mph /  8km/h 10.0mph /  16.1km/h 95% 0.00in /  0mm
07:04 46.9 °F /  8.3 °C 45.5 °F /  7.5 °C 29.84in /  1010.4hPa WSW 6.0mph /  9.7km/h 11.0mph /  17.7km/h 95% 0.00in /  0mm
07:09 46.9 °F /  8.3 °C 45.5 °F /  7.5 °C 29.84in /  1010.4hPa SW 6.0mph /  9.7km/h 10.0mph /  16.1km/h 95% 0.00in /  0mm
07:14 46.8 °F /  8.2 °C 45.4 °F /  7.4 °C 29.84in /  1010.4hPa WSW 5.0mph /  8km/h 10.0mph /  16.1km/h 95% 0.00in /  0mm
07:19 46.7 °F /  8.2 °C 45.3 °F /  7.4 °C 29.84in /  1010.4hPa WSW 5.0mph /  8km/h 11.0mph /  17.7km/h 95% 0.00in /  0mm
07:24 46.5 °F /  8.1 °C 45.1 °F /  7.3 °C 29.84in /  1010.4hPa WSW 5.0mph /  8km/h 14.0mph /  22.5km/h 95% 0.00in /  0mm
07:29 46.5 °F /  8.1 °C 45.1 °F /  7.3 °C 29.84in /  1010.4hPa WSW 5.0mph /  8km/h 14.0mph /  22.5km/h 95% 0.00in /  0mm
07:34 46.6 °F /  8.1 °C 45.2 °F /  7.3 °C 29.84in /  1010.4hPa SW 6.0mph /  9.7km/h 10.0mph /  16.1km/h 95% 0.00in /  0mm
07:39 46.7 °F /  8.2 °C 45.3 °F /  7.4 °C 29.84in /  1010.4hPa SW 5.0mph /  8km/h 8.0mph /  12.9km/h 95% 0.00in /  0mm
07:44 46.7 °F /  8.2 °C 45.3 °F /  7.4 °C 29.85in /  1010.7hPa SW 6.0mph /  9.7km/h 11.0mph /  17.7km/h 95% 0.00in /  0mm
07:49 46.7 °F /  8.2 °C 45.3 °F /  7.4 °C 29.85in /  1010.7hPa SW 6.0mph /  9.7km/h 12.0mph /  19.3km/h 95% 0.00in /  0mm
07:54 46.9 °F /  8.3 °C 45.5 °F /  7.5 °C 29.85in /  1010.7hPa SW 6.0mph /  9.7km/h 12.0mph /  19.3km/h 95% 0.00in /  0mm
07:59 47.0 °F /  8.3 °C 45.6 °F /  7.6 °C 29.85in /  1010.7hPa WSW 7.0mph /  11.3km/h 13.0mph /  20.9km/h 95% 0.00in /  0mm
08:04 46.9 °F /  8.3 °C 45.5 °F /  7.5 °C 29.86in /  1011.1hPa WSW 5.0mph /  8km/h 13.0mph /  20.9km/h 95% 0.00in /  0mm
08:09 47.0 °F /  8.3 °C 45.6 °F /  7.6 °C 29.86in /  1011.1hPa WSW 4.0mph /  6.4km/h 13.0mph /  20.9km/h 95% 0.00in /  0mm
08:14 47.0 °F /  8.3 °C 45.6 °F /  7.6 °C 29.86in /  1011.1hPa WSW 6.0mph /  9.7km/h 12.0mph /  19.3km/h 95% 0.00in /  0mm
08:19 47.1 °F /  8.4 °C 45.7 °F /  7.6 °C 29.86in /  1011.1hPa West 3.0mph /  4.8km/h 9.0mph /  14.5km/h 95% 0.00in /  0mm
08:24 47.0 °F /  8.3 °C 45.6 °F /  7.6 °C 29.86in /  1011.1hPa WSW 5.0mph /  8km/h 13.0mph /  20.9km/h 95% 0.00in /  0mm
08:29 46.9 °F /  8.3 °C 45.5 °F /  7.5 °C 29.86in /  1011.1hPa WSW 5.0mph /  8km/h 13.0mph /  20.9km/h 95% 0.00in /  0mm
08:34 47.0 °F /  8.3 °C 45.6 °F /  7.6 °C 29.86in /  1011.1hPa WSW 4.0mph /  6.4km/h 13.0mph /  20.9km/h 95% 0.00in /  0mm
08:39 46.7 °F /  8.2 °C 45.3 °F /  7.4 °C 29.87in /  1011.4hPa SW 8.0mph /  12.9km/h 11.0mph /  17.7km/h 95% 0.00in /  0mm
08:44 46.6 °F /  8.1 °C 45.2 °F /  7.3 °C 29.87in /  1011.4hPa WSW 6.0mph /  9.7km/h 13.0mph /  20.9km/h 95% 0.00in /  0mm
08:49 46.5 °F /  8.1 °C 45.1 °F /  7.3 °C 29.87in /  1011.4hPa SW 9.0mph /  14.5km/h 10.0mph /  16.1km/h 95% 0.00in /  0mm
08:54 46.3 °F /  7.9 °C 44.9 °F /  7.2 °C 29.86in /  1011.1hPa WSW 6.0mph /  9.7km/h 13.0mph /  20.9km/h 95% 0.00in /  0mm
08:59 46.2 °F /  7.9 °C 44.8 °F /  7.1 °C 29.86in /  1011.1hPa WSW 6.0mph /  9.7km/h 13.0mph /  20.9km/h 95% 0.00in /  0mm
09:04 46.3 °F /  7.9 °C 44.9 °F /  7.2 °C 29.86in /  1011.1hPa WSW 5.0mph /  8km/h 11.0mph /  17.7km/h 95% 0.00in /  0mm
09:09 46.4 °F /  8 °C 45.0 °F /  7.2 °C 29.86in /  1011.1hPa WSW 10.0mph /  16.1km/h 11.0mph /  17.7km/h 95% 0.00in /  0mm
09:14 46.5 °F /  8.1 °C 45.1 °F /  7.3 °C 29.86in /  1011.1hPa SW 4.0mph /  6.4km/h 10.0mph /  16.1km/h 95% 0.00in /  0mm
09:19 46.4 °F /  8 °C 45.0 °F /  7.2 °C 29.86in /  1011.1hPa West 5.0mph /  8km/h 10.0mph /  16.1km/h 95% 0.00in /  0mm
09:24 46.6 °F /  8.1 °C 45.2 °F /  7.3 °C 29.86in /  1011.1hPa WSW 6.0mph /  9.7km/h 10.0mph /  16.1km/h 95% 0.00in /  0mm
09:29 46.8 °F /  8.2 °C 45.7 °F /  7.6 °C 29.86in /  1011.1hPa WSW 5.0mph /  8km/h 10.0mph /  16.1km/h 96% 0.00in /  0mm
09:34 46.7 °F /  8.2 °C 45.3 °F /  7.4 °C 29.86in /  1011.1hPa WSW 5.0mph /  8km/h 13.0mph /  20.9km/h 95% 0.00in /  0mm
09:39 46.6 °F /  8.1 °C 45.2 °F /  7.3 °C 29.87in /  1011.4hPa WSW 5.0mph /  8km/h 13.0mph /  20.9km/h 95% 0.00in /  0mm
09:44 46.2 °F /  7.9 °C 44.8 °F /  7.1 °C 29.87in /  1011.4hPa WSW 6.0mph /  9.7km/h 16.0mph /  25.7km/h 95% 0.00in /  0mm
09:49 46.0 °F /  7.8 °C 44.6 °F /  7 °C 29.87in /  1011.4hPa WSW 8.0mph /  12.9km/h 11.0mph /  17.7km/h 95% 0.00in /  0mm
09:54 45.7 °F /  7.6 °C 44.4 °F /  6.9 °C 29.87in /  1011.4hPa West 5.0mph /  8km/h 13.0mph /  20.9km/h 95% 0.00in /  0mm
09:59 45.8 °F /  7.7 °C 44.4 °F /  6.9 °C 29.87in /  1011.4hPa SW 6.0mph /  9.7km/h 11.0mph /  17.7km/h 95% 0.00in /  0mm
10:04 45.9 °F /  7.7 °C 44.5 °F /  6.9 °C 29.87in /  1011.4hPa SW 3.0mph /  4.8km/h 12.0mph /  19.3km/h 95% 0.00in /  0mm
10:09 46.0 °F /  7.8 °C 44.6 °F /  7 °C 29.87in /  1011.4hPa SW 4.0mph /  6.4km/h 11.0mph /  17.7km/h 95% 0.00in /  0mm
10:14 46.5 °F /  8.1 °C 45.1 °F /  7.3 °C 29.87in /  1011.4hPa West 5.0mph /  8km/h 9.0mph /  14.5km/h 95% 0.00in /  0mm
10:19 46.8 °F /  8.2 °C 45.4 °F /  7.4 °C 29.87in /  1011.4hPa SW 4.0mph /  6.4km/h 10.0mph /  16.1km/h 95% 0.00in /  0mm
10:24 47.0 °F /  8.3 °C 45.6 °F /  7.6 °C 29.87in /  1011.4hPa WSW 4.0mph /  6.4km/h 10.0mph /  16.1km/h 95% 0.00in /  0mm
10:29 47.2 °F /  8.4 °C 45.8 °F /  7.7 °C 29.87in /  1011.4hPa WSW 4.0mph /  6.4km/h 8.0mph /  12.9km/h 95% 0.00in /  0mm
10:34 47.1 °F /  8.4 °C 45.5 °F /  7.5 °C 29.87in /  1011.4hPa WSW 5.0mph /  8km/h 10.0mph /  16.1km/h 94% 0.00in /  0mm
10:39 47.2 °F /  8.4 °C 45.6 °F /  7.6 °C 29.88in /  1011.7hPa WSW 5.0mph /  8km/h 10.0mph /  16.1km/h 94% 0.00in /  0mm
10:44 47.1 °F /  8.4 °C 45.5 °F /  7.5 °C 29.87in /  1011.4hPa SW 6.0mph /  9.7km/h 13.0mph /  20.9km/h 94% 0.00in /  0mm
10:49 46.4 °F /  8 °C 44.5 °F /  6.9 °C 29.88in /  1011.7hPa SW 7.0mph /  11.3km/h 13.0mph /  20.9km/h 93% 0.00in /  0mm
10:54 46.1 °F /  7.8 °C 44.5 °F /  6.9 °C 29.88in /  1011.7hPa SW 7.0mph /  11.3km/h 15.0mph /  24.1km/h 94% 0.00in /  0mm
10:59 46.0 °F /  7.8 °C 44.4 °F /  6.9 °C 29.88in /  1011.7hPa WSW 11.0mph /  17.7km/h 11.0mph /  17.7km/h 94% 0.00in /  0mm
11:04 46.1 °F /  7.8 °C 44.5 °F /  6.9 °C 29.88in /  1011.7hPa WSW 3.0mph /  4.8km/h 10.0mph /  16.1km/h 94% 0.00in /  0mm
11:09 46.4 °F /  8 °C 44.8 °F /  7.1 °C 29.88in /  1011.7hPa NW 7.0mph /  11.3km/h 11.0mph /  17.7km/h 94% 0.00in /  0mm
11:14 46.4 °F /  8 °C 44.8 °F /  7.1 °C 29.87in /  1011.4hPa West 10.0mph /  16.1km/h 12.0mph /  19.3km/h 94% 0.00in /  0mm
11:19 46.4 °F /  8 °C 44.8 °F /  7.1 °C 29.88in /  1011.7hPa WSW 9.0mph /  14.5km/h 12.0mph /  19.3km/h 94% 0.00in /  0mm
11:24 46.6 °F /  8.1 °C 45.0 °F /  7.2 °C 29.88in /  1011.7hPa SSW 2.0mph /  3.2km/h 11.0mph /  17.7km/h 94% 0.00in /  0mm
11:29 46.7 °F /  8.2 °C 44.8 °F /  7.1 °C 29.88in /  1011.7hPa WSW 6.0mph /  9.7km/h 13.0mph /  20.9km/h 93% 0.00in /  0mm
11:34 46.6 °F /  8.1 °C 44.7 °F /  7.1 °C 29.88in /  1011.7hPa SW 6.0mph /  9.7km/h 13.0mph /  20.9km/h 93% 0.00in /  0mm
11:39 46.7 °F /  8.2 °C 44.8 °F /  7.1 °C 29.89in /  1012.1hPa WSW 7.0mph /  11.3km/h 13.0mph /  20.9km/h 93% 0.00in /  0mm
11:44 46.9 °F /  8.3 °C 45.0 °F /  7.2 °C 29.89in /  1012.1hPa WSW 8.0mph /  12.9km/h 17.0mph /  27.4km/h 93% 0.00in /  0mm
11:49 47.0 °F /  8.3 °C 44.8 °F /  7.1 °C 29.88in /  1011.7hPa WSW 7.0mph /  11.3km/h 17.0mph /  27.4km/h 92% 0.00in /  0mm
11:54 47.1 °F /  8.4 °C 44.6 °F /  7 °C 29.89in /  1012.1hPa West 4.0mph /  6.4km/h 16.0mph /  25.7km/h 91% 0.00in /  0mm
11:59 47.5 °F /  8.6 °C 45.0 °F /  7.2 °C 29.89in /  1012.1hPa SW 7.0mph /  11.3km/h 16.0mph /  25.7km/h 91% 0.00in /  0mm
12:04 48.1 °F /  8.9 °C 45.3 °F /  7.4 °C 29.88in /  1011.7hPa SW 7.0mph /  11.3km/h 14.0mph /  22.5km/h 90% 0.00in /  0mm
12:09 48.2 °F /  9 °C 44.8 °F /  7.1 °C 29.89in /  1012.1hPa SW 11.0mph /  17.7km/h 17.0mph /  27.4km/h 88% 0.00in /  0mm
12:14 48.3 °F /  9.1 °C 44.6 °F /  7 °C 29.89in /  1012.1hPa West 10.0mph /  16.1km/h 19.0mph /  30.6km/h 87% 0.00in /  0mm
12:19 48.2 °F /  9 °C 44.5 °F /  6.9 °C 29.89in /  1012.1hPa West 10.0mph /  16.1km/h 18.0mph /  29km/h 87% 0.00in /  0mm
12:24 48.3 °F /  9.1 °C 44.3 °F /  6.8 °C 29.89in /  1012.1hPa SSW 10.0mph /  16.1km/h 16.0mph /  25.7km/h 86% 0.00in /  0mm
12:29 48.3 °F /  9.1 °C 44.0 °F /  6.7 °C 29.89in /  1012.1hPa SW 9.0mph /  14.5km/h 16.0mph /  25.7km/h 85% 0.00in /  0mm
12:34 48.2 °F /  9 °C 43.9 °F /  6.6 °C 29.89in /  1012.1hPa WSW 8.0mph /  12.9km/h 17.0mph /  27.4km/h 85% 0.00in /  0mm
12:39 48.2 °F /  9 °C 43.6 °F /  6.4 °C 29.89in /  1012.1hPa WSW 8.0mph /  12.9km/h 17.0mph /  27.4km/h 84% 0.00in /  0mm
12:44 47.9 °F /  8.8 °C 43.3 °F /  6.3 °C 29.89in /  1012.1hPa WSW 9.0mph /  14.5km/h 18.0mph /  29km/h 84% 0.00in /  0mm
12:49 47.7 °F /  8.7 °C 43.1 °F /  6.2 °C 29.88in /  1011.7hPa WSW 9.0mph /  14.5km/h 18.0mph /  29km/h 84% 0.00in /  0mm
12:54 47.9 °F /  8.8 °C 43.6 °F /  6.4 °C 29.89in /  1012.1hPa SW 8.0mph /  12.9km/h 15.0mph /  24.1km/h 85% 0.00in /  0mm
12:59 47.9 °F /  8.8 °C 43.3 °F /  6.3 °C 29.89in /  1012.1hPa SW 8.0mph /  12.9km/h 18.0mph /  29km/h 84% 0.00in /  0mm
13:04 48.9 °F /  9.4 °C 44.6 °F /  7 °C 29.89in /  1012.1hPa WSW 8.0mph /  12.9km/h 18.0mph /  29km/h 85% 0.00in /  0mm
13:09 50.0 °F /  10 °C 45.0 °F /  7.2 °C 29.89in /  1012.1hPa WSW 5.0mph /  8km/h 14.0mph /  22.5km/h 83% 0.00in /  0mm
13:14 50.8 °F /  10.4 °C 45.5 °F /  7.5 °C 29.89in /  1012.1hPa West 11.0mph /  17.7km/h 14.0mph /  22.5km/h 82% 0.00in /  0mm
13:19 50.8 °F /  10.4 °C 45.2 °F /  7.3 °C 29.89in /  1012.1hPa WNW 9.0mph /  14.5km/h 14.0mph /  22.5km/h 81% 0.00in /  0mm
13:24 50.8 °F /  10.4 °C 45.5 °F /  7.5 °C 29.89in /  1012.1hPa WSW 7.0mph /  11.3km/h 15.0mph /  24.1km/h 82% 0.00in /  0mm
13:29 50.2 °F /  10.1 °C 44.6 °F /  7 °C 29.89in /  1012.1hPa SW 9.0mph /  14.5km/h 20.0mph /  32.2km/h 81% 0.00in /  0mm
13:34 50.0 °F /  10 °C 44.4 °F /  6.9 °C 29.89in /  1012.1hPa WSW 10.0mph /  16.1km/h 20.0mph /  32.2km/h 81% 0.00in /  0mm
13:39 50.2 °F /  10.1 °C 44.6 °F /  7 °C 29.89in /  1012.1hPa West 7.0mph /  11.3km/h 19.0mph /  30.6km/h 81% 0.00in /  0mm
13:44 50.7 °F /  10.4 °C 45.1 °F /  7.3 °C 29.90in /  1012.4hPa WSW 7.0mph /  11.3km/h 19.0mph /  30.6km/h 81% 0.00in /  0mm
13:49 51.4 °F /  10.8 °C 45.1 °F /  7.3 °C 29.90in /  1012.4hPa SSW 14.0mph /  22.5km/h 19.0mph /  30.6km/h 79% 0.00in /  0mm
13:54 52.0 °F /  11.1 °C 45.0 °F /  7.2 °C 29.89in /  1012.1hPa SW 15.0mph /  24.1km/h 19.0mph /  30.6km/h 77% 0.00in /  0mm
13:59 52.1 °F /  11.2 °C 44.8 °F /  7.1 °C 29.89in /  1012.1hPa SW 11.0mph /  17.7km/h 21.0mph /  33.8km/h 76% 0.00in /  0mm
14:04 52.1 °F /  11.2 °C 44.4 °F /  6.9 °C 29.89in /  1012.1hPa WSW 12.0mph /  19.3km/h 21.0mph /  33.8km/h 75% 0.00in /  0mm
14:09 52.2 °F /  11.2 °C 44.5 °F /  6.9 °C 29.90in /  1012.4hPa WSW 11.0mph /  17.7km/h 24.0mph /  38.6km/h 75% 0.00in /  0mm
14:14 52.0 °F /  11.1 °C 44.3 °F /  6.8 °C 29.90in /  1012.4hPa West 7.0mph /  11.3km/h 17.0mph /  27.4km/h 75% 0.00in /  0mm
14:19 51.8 °F /  11 °C 44.1 °F /  6.7 °C 29.90in /  1012.4hPa SSW 7.0mph /  11.3km/h 13.0mph /  20.9km/h 75% 0.00in /  0mm
14:24 51.0 °F /  10.6 °C 43.7 °F /  6.5 °C 29.90in /  1012.4hPa SW 9.0mph /  14.5km/h 14.0mph /  22.5km/h 76% 0.00in /  0mm
14:29 50.8 °F /  10.4 °C 43.5 °F /  6.4 °C 29.90in /  1012.4hPa WSW 7.0mph /  11.3km/h 14.0mph /  22.5km/h 76% 0.00in /  0mm
14:34 50.9 °F /  10.5 °C 44.3 °F /  6.8 °C 29.90in /  1012.4hPa WSW 8.0mph /  12.9km/h 15.0mph /  24.1km/h 78% 0.00in /  0mm
14:39 50.9 °F /  10.5 °C 43.9 °F /  6.6 °C 29.90in /  1012.4hPa WSW 7.0mph /  11.3km/h 21.0mph /  33.8km/h 77% 0.00in /  0mm
14:44 50.9 °F /  10.5 °C 43.6 °F /  6.4 °C 29.90in /  1012.4hPa WSW 6.0mph /  9.7km/h 16.0mph /  25.7km/h 76% 0.00in /  0mm
14:49 51.2 °F /  10.7 °C 43.9 °F /  6.6 °C 29.90in /  1012.4hPa WSW 13.0mph /  20.9km/h 17.0mph /  27.4km/h 76% 0.00in /  0mm
14:54 50.4 °F /  10.2 °C 42.8 °F /  6 °C 29.90in /  1012.4hPa SW 14.0mph /  22.5km/h 19.0mph /  30.6km/h 75% 0.00in /  0mm
14:59 50.1 °F /  10.1 °C 42.8 °F /  6 °C 29.90in /  1012.4hPa WSW 14.0mph /  22.5km/h 18.0mph /  29km/h 76% 0.00in /  0mm
15:04 49.9 °F /  9.9 °C 43.0 °F /  6.1 °C 29.90in /  1012.4hPa WSW 9.0mph /  14.5km/h 18.0mph /  29km/h 77% 0.00in /  0mm
15:09 49.9 °F /  9.9 °C 42.6 °F /  5.9 °C 29.90in /  1012.4hPa WSW 9.0mph /  14.5km/h 17.0mph /  27.4km/h 76% 0.00in /  0mm
15:14 49.8 °F /  9.9 °C 42.2 °F /  5.7 °C 29.90in /  1012.4hPa WSW 9.0mph /  14.5km/h 18.0mph /  29km/h 75% 0.00in /  0mm
15:19 49.9 °F /  9.9 °C 42.3 °F /  5.7 °C 29.90in /  1012.4hPa WSW 8.0mph /  12.9km/h 19.0mph /  30.6km/h 75% 0.00in /  0mm
15:24 50.1 °F /  10.1 °C 42.8 °F /  6 °C 29.90in /  1012.4hPa WSW 15.0mph /  24.1km/h 17.0mph /  27.4km/h 76% 0.00in /  0mm
15:29 50.0 °F /  10 °C 42.7 °F /  5.9 °C 29.90in /  1012.4hPa WSW 9.0mph /  14.5km/h 23.0mph /  37km/h 76% 0.00in /  0mm
15:34 50.5 °F /  10.3 °C 43.2 °F /  6.2 °C 29.90in /  1012.4hPa SW 7.0mph /  11.3km/h 17.0mph /  27.4km/h 76% 0.00in /  0mm
15:39 51.2 °F /  10.7 °C 43.9 °F /  6.6 °C 29.90in /  1012.4hPa SW 13.0mph /  20.9km/h 13.0mph /  20.9km/h 76% 0.00in /  0mm
15:44 51.2 °F /  10.7 °C 42.8 °F /  6 °C 29.91in /  1012.8hPa West 13.0mph /  20.9km/h 21.0mph /  33.8km/h 73% 0.00in /  0mm
15:49 51.1 °F /  10.6 °C 42.7 °F /  5.9 °C 29.91in /  1012.8hPa WSW 8.0mph /  12.9km/h 16.0mph /  25.7km/h 73% 0.00in /  0mm
15:54 50.6 °F /  10.3 °C 42.3 °F /  5.7 °C 29.91in /  1012.8hPa SW 13.0mph /  20.9km/h 23.0mph /  37km/h 73% 0.00in /  0mm
15:59 49.6 °F /  9.8 °C 41.7 °F /  5.4 °C 29.91in /  1012.8hPa WSW 9.0mph /  14.5km/h 23.0mph /  37km/h 74% 0.00in /  0mm
16:04 49.6 °F /  9.8 °C 42.3 °F /  5.7 °C 29.91in /  1012.8hPa WSW 8.0mph /  12.9km/h 17.0mph /  27.4km/h 76% 0.00in /  0mm
16:09 49.3 °F /  9.6 °C 42.1 °F /  5.6 °C 29.90in /  1012.4hPa West 7.0mph /  11.3km/h 13.0mph /  20.9km/h 76% 0.00in /  0mm
16:14 49.2 °F /  9.6 °C 42.0 °F /  5.6 °C 29.90in /  1012.4hPa WSW 7.0mph /  11.3km/h 17.0mph /  27.4km/h 76% 0.00in /  0mm
16:19 48.7 °F /  9.3 °C 41.5 °F /  5.3 °C 29.90in /  1012.4hPa WSW 8.0mph /  12.9km/h 17.0mph /  27.4km/h 76% 0.00in /  0mm
16:24 48.2 °F /  9 °C 41.3 °F /  5.2 °C 29.90in /  1012.4hPa WSW 7.0mph /  11.3km/h 19.0mph /  30.6km/h 77% 0.00in /  0mm
16:29 48.3 °F /  9.1 °C 41.8 °F /  5.4 °C 29.90in /  1012.4hPa WSW 9.0mph /  14.5km/h 19.0mph /  30.6km/h 78% 0.00in /  0mm
16:34 48.5 °F /  9.2 °C 42.0 °F /  5.6 °C 29.91in /  1012.8hPa WNW 8.0mph /  12.9km/h 17.0mph /  27.4km/h 78% 0.00in /  0mm
16:39 49.2 °F /  9.6 °C 42.3 °F /  5.7 °C 29.91in /  1012.8hPa SSW 5.0mph /  8km/h 17.0mph /  27.4km/h 77% 0.00in /  0mm
16:44 49.1 °F /  9.5 °C 42.2 °F /  5.7 °C 29.91in /  1012.8hPa WSW 10.0mph /  16.1km/h 17.0mph /  27.4km/h 77% 0.00in /  0mm
16:49 49.5 °F /  9.7 °C 42.6 °F /  5.9 °C 29.92in /  1013.1hPa West 6.0mph /  9.7km/h 12.0mph /  19.3km/h 77% 0.00in /  0mm
16:54 49.2 °F /  9.6 °C 42.3 °F /  5.7 °C 29.92in /  1013.1hPa SW 9.0mph /  14.5km/h 17.0mph /  27.4km/h 77% 0.00in /  0mm
16:59 48.6 °F /  9.2 °C 41.7 °F /  5.4 °C 29.92in /  1013.1hPa WSW 9.0mph /  14.5km/h 19.0mph /  30.6km/h 77% 0.00in /  0mm
17:04 48.3 °F /  9.1 °C 41.8 °F /  5.4 °C 29.92in /  1013.1hPa WSW 10.0mph /  16.1km/h 20.0mph /  32.2km/h 78% 0.00in /  0mm
17:09 48.1 °F /  8.9 °C 41.9 °F /  5.5 °C 29.92in /  1013.1hPa WSW 9.0mph /  14.5km/h 20.0mph /  32.2km/h 79% 0.00in /  0mm
17:14 48.0 °F /  8.9 °C 41.8 °F /  5.4 °C 29.92in /  1013.1hPa WSW 8.0mph /  12.9km/h 18.0mph /  29km/h 79% 0.00in /  0mm
17:19 47.8 °F /  8.8 °C 41.9 °F /  5.5 °C 29.92in /  1013.1hPa West 10.0mph /  16.1km/h 21.0mph /  33.8km/h 80% 0.00in /  0mm
17:24 47.4 °F /  8.6 °C 41.5 °F /  5.3 °C 29.93in /  1013.4hPa WSW 8.0mph /  12.9km/h 21.0mph /  33.8km/h 80% 0.00in /  0mm
17:29 46.9 °F /  8.3 °C 41.4 °F /  5.2 °C 29.93in /  1013.4hPa WSW 9.0mph /  14.5km/h 22.0mph /  35.4km/h 81% 0.00in /  0mm
17:34 46.7 °F /  8.2 °C 41.2 °F /  5.1 °C 29.93in /  1013.4hPa West 6.0mph /  9.7km/h 15.0mph /  24.1km/h 81% 0.00in /  0mm
17:39 46.4 °F /  8 °C 41.2 °F /  5.1 °C 29.94in /  1013.8hPa West 10.0mph /  16.1km/h 22.0mph /  35.4km/h 82% 0.00in /  0mm
17:44 46.1 °F /  7.8 °C 41.2 °F /  5.1 °C 29.94in /  1013.8hPa WSW 8.0mph /  12.9km/h 16.0mph /  25.7km/h 83% 0.00in /  0mm
17:49 45.6 °F /  7.6 °C 41.0 °F /  5 °C 29.95in /  1014.1hPa WSW 12.0mph /  19.3km/h 15.0mph /  24.1km/h 84% 0.00in /  0mm
17:54 45.3 °F /  7.4 °C 41.1 °F /  5.1 °C 29.95in /  1014.1hPa WSW 8.0mph /  12.9km/h 15.0mph /  24.1km/h 85% 0.00in /  0mm
17:59 45.1 °F /  7.3 °C 40.9 °F /  4.9 °C 29.95in /  1014.1hPa WSW 8.0mph /  12.9km/h 13.0mph /  20.9km/h 85% 0.00in /  0mm
18:04 45.1 °F /  7.3 °C 41.2 °F /  5.1 °C 29.95in /  1014.1hPa WSW 6.0mph /  9.7km/h 13.0mph /  20.9km/h 86% 0.00in /  0mm
18:09 45.0 °F /  7.2 °C 41.4 °F /  5.2 °C 29.96in /  1014.4hPa WSW 5.0mph /  8km/h 10.0mph /  16.1km/h 87% 0.00in /  0mm
18:14 44.9 °F /  7.2 °C 41.3 °F /  5.2 °C 29.96in /  1014.4hPa West 7.0mph /  11.3km/h 9.0mph /  14.5km/h 87% 0.00in /  0mm
18:19 44.7 °F /  7.1 °C 41.4 °F /  5.2 °C 29.96in /  1014.4hPa WSW 5.0mph /  8km/h 10.0mph /  16.1km/h 88% 0.00in /  0mm
18:24 44.5 °F /  6.9 °C 41.5 °F /  5.3 °C 29.96in /  1014.4hPa WSW 5.0mph /  8km/h 11.0mph /  17.7km/h 89% 0.00in /  0mm
18:29 44.4 °F /  6.9 °C 41.4 °F /  5.2 °C 29.96in /  1014.4hPa WSW 5.0mph /  8km/h 11.0mph /  17.7km/h 89% 0.00in /  0mm
18:34 44.5 °F /  6.9 °C 41.7 °F /  5.4 °C 29.96in /  1014.4hPa WSW 5.0mph /  8km/h 9.0mph /  14.5km/h 90% 0.00in /  0mm
18:39 44.5 °F /  6.9 °C 41.5 °F /  5.3 °C 29.96in /  1014.4hPa West 6.0mph /  9.7km/h 9.0mph /  14.5km/h 89% 0.00in /  0mm
18:44 44.5 °F /  6.9 °C 41.7 °F /  5.4 °C 29.96in /  1014.4hPa SW 4.0mph /  6.4km/h 6.0mph /  9.7km/h 90% 0.00in /  0mm
18:49 44.5 °F /  6.9 °C 41.7 °F /  5.4 °C 29.96in /  1014.4hPa SW 5.0mph /  8km/h 6.0mph /  9.7km/h 90% 0.00in /  0mm
18:54 44.5 °F /  6.9 °C 41.7 °F /  5.4 °C 29.96in /  1014.4hPa SW 4.0mph /  6.4km/h 8.0mph /  12.9km/h 90% 0.00in /  0mm
18:59 44.7 °F /  7.1 °C 41.9 °F /  5.5 °C 29.96in /  1014.4hPa WSW 8.0mph /  12.9km/h 8.0mph /  12.9km/h 90% 0.00in /  0mm
19:04 44.7 °F /  7.1 °C 41.9 °F /  5.5 °C 29.96in /  1014.4hPa SW 3.0mph /  4.8km/h 8.0mph /  12.9km/h 90% 0.00in /  0mm
19:09 44.6 °F /  7 °C 41.8 °F /  5.4 °C 29.96in /  1014.4hPa SW 2.0mph /  3.2km/h 7.0mph /  11.3km/h 90% 0.00in /  0mm
19:14 44.4 °F /  6.9 °C 41.4 °F /  5.2 °C 29.96in /  1014.4hPa WSW 2.0mph /  3.2km/h 9.0mph /  14.5km/h 89% 0.00in /  0mm
19:19 44.3 °F /  6.8 °C 41.3 °F /  5.2 °C 29.96in /  1014.4hPa SW 4.0mph /  6.4km/h 9.0mph /  14.5km/h 89% 0.00in /  0mm
19:24 44.3 °F /  6.8 °C 41.3 °F /  5.2 °C 29.96in /  1014.4hPa SW 4.0mph /  6.4km/h 9.0mph /  14.5km/h 89% 0.00in /  0mm
19:29 44.5 °F /  6.9 °C 41.5 °F /  5.3 °C 29.96in /  1014.4hPa SW 3.0mph /  4.8km/h 8.0mph /  12.9km/h 89% 0.00in /  0mm
19:34 44.4 °F /  6.9 °C 41.4 °F /  5.2 °C 29.97in /  1014.8hPa SW 4.0mph /  6.4km/h 8.0mph /  12.9km/h 89% 0.00in /  0mm
19:39 44.3 °F /  6.8 °C 41.3 °F /  5.2 °C 29.96in /  1014.4hPa SW 4.0mph /  6.4km/h 8.0mph /  12.9km/h 89% 0.00in /  0mm
19:44 44.4 °F /  6.9 °C 41.4 °F /  5.2 °C 29.96in /  1014.4hPa SW 4.0mph /  6.4km/h 8.0mph /  12.9km/h 89% 0.00in /  0mm
19:49 44.4 °F /  6.9 °C 41.1 °F /  5.1 °C 29.97in /  1014.8hPa SW 4.0mph /  6.4km/h 5.0mph /  8km/h 88% 0.00in /  0mm
19:54 44.3 °F /  6.8 °C 41.0 °F /  5 °C 29.97in /  1014.8hPa SW 2.0mph /  3.2km/h 8.0mph /  12.9km/h 88% 0.00in /  0mm
19:59 44.4 °F /  6.9 °C 41.4 °F /  5.2 °C 29.97in /  1014.8hPa SW 3.0mph /  4.8km/h 5.0mph /  8km/h 89% 0.00in /  0mm
20:04 44.3 °F /  6.8 °C 41.0 °F /  5 °C 29.97in /  1014.8hPa WSW 3.0mph /  4.8km/h 6.0mph /  9.7km/h 88% 0.00in /  0mm
20:09 44.4 °F /  6.9 °C 41.1 °F /  5.1 °C 29.97in /  1014.8hPa SW 1.0mph /  1.6km/h 5.0mph /  8km/h 88% 0.00in /  0mm
20:14 44.5 °F /  6.9 °C 41.2 °F /  5.1 °C 29.98in /  1015.1hPa WSW 2.0mph /  3.2km/h 5.0mph /  8km/h 88% 0.00in /  0mm
20:19 44.3 °F /  6.8 °C 41.0 °F /  5 °C 29.98in /  1015.1hPa SW 6.0mph /  9.7km/h 6.0mph /  9.7km/h 88% 0.00in /  0mm
20:24 44.3 °F /  6.8 °C 41.0 °F /  5 °C 29.98in /  1015.1hPa SW 3.0mph /  4.8km/h 6.0mph /  9.7km/h 88% 0.00in /  0mm
20:29 44.3 °F /  6.8 °C 41.0 °F /  5 °C 29.98in /  1015.1hPa SW 3.0mph /  4.8km/h 6.0mph /  9.7km/h 88% 0.00in /  0mm
20:34 44.2 °F /  6.8 °C 40.9 °F /  4.9 °C 29.98in /  1015.1hPa SSW 3.0mph /  4.8km/h 6.0mph /  9.7km/h 88% 0.00in /  0mm
20:39 44.2 °F /  6.8 °C 40.9 °F /  4.9 °C 29.98in /  1015.1hPa SW 3.0mph /  4.8km/h 6.0mph /  9.7km/h 88% 0.00in /  0mm
20:44 44.3 °F /  6.8 °C 41.0 °F /  5 °C 29.98in /  1015.1hPa SW 2.0mph /  3.2km/h 4.0mph /  6.4km/h 88% 0.00in /  0mm
20:49 44.3 °F /  6.8 °C 41.3 °F /  5.2 °C 29.98in /  1015.1hPa SW 2.0mph /  3.2km/h 4.0mph /  6.4km/h 89% 0.00in /  0mm
20:59 44.5 °F /  6.9 °C 41.2 °F /  5.1 °C 29.99in /  1015.5hPa SW 2.0mph /  3.2km/h 4.0mph /  6.4km/h 88% 0.00in /  0mm
21:04 44.6 °F /  7 °C 41.3 °F /  5.2 °C 29.99in /  1015.5hPa SW 2.0mph /  3.2km/h 4.0mph /  6.4km/h 88% 0.00in /  0mm
21:09 44.8 °F /  7.1 °C 41.5 °F /  5.3 °C 29.99in /  1015.5hPa SW 1.0mph /  1.6km/h 3.0mph /  4.8km/h 88% 0.00in /  0mm
21:14 45.0 °F /  7.2 °C 41.7 °F /  5.4 °C 29.99in /  1015.5hPa WSW 2.0mph /  3.2km/h 4.0mph /  6.4km/h 88% 0.00in /  0mm
21:19 45.1 °F /  7.3 °C 41.5 °F /  5.3 °C 29.99in /  1015.5hPa Calm   4.0mph /  6.4km/h 87% 0.00in /  0mm
21:24 45.2 °F /  7.3 °C 41.6 °F /  5.3 °C 30.00in /  1015.8hPa Calm   3.0mph /  4.8km/h 87% 0.00in /  0mm
21:29 45.2 °F /  7.3 °C 41.6 °F /  5.3 °C 30.00in /  1015.8hPa SSW 1.0mph /  1.6km/h 3.0mph /  4.8km/h 87% 0.00in /  0mm
21:34 45.2 °F /  7.3 °C 41.6 °F /  5.3 °C 30.00in /  1015.8hPa SW 2.0mph /  3.2km/h 4.0mph /  6.4km/h 87% 0.00in /  0mm
21:39 45.1 °F /  7.3 °C 41.5 °F /  5.3 °C 30.00in /  1015.8hPa SW 3.0mph /  4.8km/h 5.0mph /  8km/h 87% 0.00in /  0mm
21:44 45.2 °F /  7.3 °C 41.6 °F /  5.3 °C 30.00in /  1015.8hPa SW 3.0mph /  4.8km/h 5.0mph /  8km/h 87% 0.00in /  0mm
21:49 45.2 °F /  7.3 °C 41.6 °F /  5.3 °C 30.00in /  1015.8hPa SW 3.0mph /  4.8km/h 3.0mph /  4.8km/h 87% 0.00in /  0mm
21:54 45.2 °F /  7.3 °C 41.9 °F /  5.5 °C 30.00in /  1015.8hPa SW 2.0mph /  3.2km/h 4.0mph /  6.4km/h 88% 0.00in /  0mm
21:59 45.2 °F /  7.3 °C 41.6 °F /  5.3 °C 30.00in /  1015.8hPa SW 3.0mph /  4.8km/h 3.0mph /  4.8km/h 87% 0.00in /  0mm
22:04 45.2 °F /  7.3 °C 41.6 °F /  5.3 °C 30.00in /  1015.8hPa Calm   3.0mph /  4.8km/h 87% 0.00in /  0mm
22:09 45.4 °F /  7.4 °C 41.2 °F /  5.1 °C 30.01in /  1016.1hPa NW 2.0mph /  3.2km/h 8.0mph /  12.9km/h 85% 0.00in /  0mm
22:14 45.8 °F /  7.7 °C 40.6 °F /  4.8 °C 30.00in /  1015.8hPa West 3.0mph /  4.8km/h 6.0mph /  9.7km/h 82% 0.00in /  0mm
22:19 46.0 °F /  7.8 °C 40.5 °F /  4.7 °C 30.00in /  1015.8hPa WNW 3.0mph /  4.8km/h 8.0mph /  12.9km/h 81% 0.00in /  0mm
22:24 46.1 °F /  7.8 °C 39.6 °F /  4.2 °C 30.01in /  1016.1hPa WNW 3.0mph /  4.8km/h 8.0mph /  12.9km/h 78% 0.00in /  0mm
22:29 46.1 °F /  7.8 °C 39.6 °F /  4.2 °C 30.01in /  1016.1hPa WNW 3.0mph /  4.8km/h 8.0mph /  12.9km/h 78% 0.00in /  0mm
22:34 46.2 °F /  7.9 °C 39.4 °F /  4.1 °C 30.01in /  1016.1hPa WNW 2.0mph /  3.2km/h 5.0mph /  8km/h 77% 0.00in /  0mm
22:39 46.1 °F /  7.8 °C 39.3 °F /  4.1 °C 30.01in /  1016.1hPa Calm   4.0mph /  6.4km/h 77% 0.00in /  0mm
22:44 46.1 °F /  7.8 °C 39.3 °F /  4.1 °C 30.01in /  1016.1hPa West 2.0mph /  3.2km/h 3.0mph /  4.8km/h 77% 0.00in /  0mm
22:49 46.0 °F /  7.8 °C 39.2 °F /  4 °C 30.01in /  1016.1hPa West 1.0mph /  1.6km/h 5.0mph /  8km/h 77% 0.00in /  0mm
22:54 46.0 °F /  7.8 °C 38.9 °F /  3.8 °C 30.01in /  1016.1hPa West 2.0mph /  3.2km/h 9.0mph /  14.5km/h 76% 0.00in /  0mm
22:59 45.9 °F /  7.7 °C 38.8 °F /  3.8 °C 30.01in /  1016.1hPa West 3.0mph /  4.8km/h 9.0mph /  14.5km/h 76% 0.00in /  0mm
23:04 45.9 °F /  7.7 °C 38.4 °F /  3.6 °C 30.01in /  1016.1hPa West 4.0mph /  6.4km/h 7.0mph /  11.3km/h 75% 0.00in /  0mm
23:09 45.8 °F /  7.7 °C 38.7 °F /  3.7 °C 30.01in /  1016.1hPa West 2.0mph /  3.2km/h 7.0mph /  11.3km/h 76% 0.00in /  0mm
23:14 45.8 °F /  7.7 °C 38.7 °F /  3.7 °C 30.02in /  1016.5hPa West 6.0mph /  9.7km/h 8.0mph /  12.9km/h 76% 0.00in /  0mm
23:19 45.7 °F /  7.6 °C 38.6 °F /  3.7 °C 30.02in /  1016.5hPa West 3.0mph /  4.8km/h 8.0mph /  12.9km/h 76% 0.00in /  0mm
23:24 45.7 °F /  7.6 °C 38.6 °F /  3.7 °C 30.02in /  1016.5hPa West 1.0mph /  1.6km/h 6.0mph /  9.7km/h 76% 0.00in /  0mm
23:29 45.7 °F /  7.6 °C 38.2 °F /  3.4 °C 30.02in /  1016.5hPa West 3.0mph /  4.8km/h 7.0mph /  11.3km/h 75% 0.00in /  0mm
23:34 45.7 °F /  7.6 °C 38.2 °F /  3.4 °C 30.02in /  1016.5hPa WSW 3.0mph /  4.8km/h 8.0mph /  12.9km/h 75% 0.00in /  0mm
23:39 45.6 °F /  7.6 °C 38.1 °F /  3.4 °C 30.02in /  1016.5hPa WSW 4.0mph /  6.4km/h 7.0mph /  11.3km/h 75% 0.00in /  0mm
23:44 45.6 °F /  7.6 °C 38.1 °F /  3.4 °C 30.02in /  1016.5hPa West 5.0mph /  8km/h 8.0mph /  12.9km/h 75% 0.00in /  0mm
23:49 45.5 °F /  7.5 °C 38.0 °F /  3.3 °C 30.02in /  1016.5hPa West 4.0mph /  6.4km/h 8.0mph /  12.9km/h 75% 0.00in /  0mm
23:54 45.4 °F /  7.4 °C 37.9 °F /  3.3 °C 30.02in /  1016.5hPa West 4.0mph /  6.4km/h 8.0mph /  12.9km/h 75% 0.00in /  0mm
23:59 45.3 °F /  7.4 °C 37.8 °F /  3.2 °C 30.02in /  1016.5hPa West 5.0mph /  8km/h 10.0mph /  16.1km/h 75% 0.00in /  0mm
Buffalo, New York, USA
Compliments of Weather Underground - 2.5 mb